In Rescue
 
Open Full Screen Window  High Contrast Mode
Wind Gusting 19 knots
11
May 20, 2019 3:44 PM EDT
Weather Information
Wind Direction
  280 °
Wind Speed
  11 kt (13 mph)
Wind Gust
  19 kt (22 mph)
Altimeter
30.00 in
Visibility
10 SM
Temperature
12° C
54° F
Dewpoint
03° C
37° F
Humidity
54%
Sky Condition
Overcast @ 3,100 ft
VFR

METAR KVLL 201944Z AUTO 28011G19KT 10SM OVC031 12/03 A3000 RMK AO2 T01200033

FAA Disclaimer: The data displayed is for advisory purposes only and is not to be used for flight planning or operations.